createdAt,value
2022-12-03T00:06:11.262Z,12.23
2022-12-03T00:21:00.750Z,12.33
2022-12-03T00:24:32.949Z,13.03
2022-12-03T00:35:39.602Z,13.67
2022-12-03T00:43:51.441Z,14.20
2022-12-03T00:46:19.709Z,13.17
2022-12-03T00:48:44.288Z,12.87
2022-12-03T00:51:09.433Z,13.60
2022-12-03T00:53:31.827Z,16.03
2022-12-03T00:56:56.898Z,14.20
2022-12-03T00:59:19.769Z,12.13
2022-12-03T01:01:47.557Z,13.23
2022-12-03T01:04:11.635Z,14.47
2022-12-03T01:08:58.185Z,14.47
2022-12-03T01:11:34.986Z,12.87
2022-12-03T01:15:44.334Z,14.80
2022-12-03T01:18:06.831Z,13.10
2022-12-03T01:20:29.223Z,13.13
2022-12-03T01:27:48.592Z,12.50
2022-12-03T01:30:15.214Z,14.17
2022-12-03T01:36:03.649Z,13.85
2022-12-03T01:38:26.498Z,12.60
2022-12-03T01:40:51.175Z,13.30
2022-12-03T01:43:13.712Z,12.97
2022-12-03T01:45:36.626Z,14.07
2022-12-03T01:47:59.550Z,12.97
2022-12-03T01:50:41.520Z,14.60
2022-12-03T01:53:06.578Z,13.07
2022-12-03T01:55:30.025Z,13.63
2022-12-03T01:58:00.194Z,12.83
2022-12-03T02:00:27.615Z,12.10
2022-12-03T02:02:58.302Z,13.53
2022-12-03T02:05:28.161Z,12.17
2022-12-03T02:07:50.990Z,13.63
2022-12-03T02:10:18.227Z,12.90
2022-12-03T02:12:59.865Z,13.70
2022-12-03T02:18:49.654Z,14.03
2022-12-03T02:21:54.300Z,13.93
2022-12-03T02:24:52.286Z,13.80
2022-12-03T02:27:14.934Z,13.37
2022-12-03T02:34:55.744Z,14.00
2022-12-03T02:37:34.921Z,14.70
2022-12-03T02:40:03.208Z,17.00
2022-12-03T02:42:35.536Z,17.67
2022-12-03T02:45:05.770Z,15.00
2022-12-03T02:47:31.423Z,19.00
2022-12-03T02:49:56.095Z,20.50
2022-12-03T02:52:19.126Z,15.50
2022-12-03T02:54:42.046Z,16.60
2022-12-03T02:57:05.028Z,15.73
2022-12-03T02:59:27.953Z,15.47
2022-12-03T03:01:50.532Z,15.30
2022-12-03T03:04:13.030Z,15.90
2022-12-03T03:06:35.597Z,13.83
2022-12-03T03:08:58.467Z,14.00
2022-12-03T03:11:24.535Z,14.90
2022-12-03T03:13:48.348Z,14.37
2022-12-03T03:16:11.118Z,15.37
2022-12-03T03:18:35.121Z,14.40
2022-12-03T03:20:57.532Z,13.52
2022-12-03T03:23:24.163Z,15.40
2022-12-03T03:25:57.761Z,14.97
2022-12-03T03:28:20.536Z,15.77
2022-12-03T03:30:44.765Z,14.70
2022-12-03T03:33:08.157Z,14.80
2022-12-03T03:35:31.072Z,15.77
2022-12-03T03:37:57.142Z,15.10
2022-12-03T03:40:21.475Z,14.63
2022-12-03T03:42:43.983Z,15.32
2022-12-03T03:45:09.751Z,13.80
2022-12-03T03:47:32.771Z,15.40
2022-12-03T03:49:55.966Z,14.93
2022-12-03T03:52:20.233Z,14.07
2022-12-03T03:57:06.073Z,15.03
2022-12-03T03:59:30.161Z,13.33
2022-12-03T04:01:53.065Z,14.93
2022-12-03T04:04:22.135Z,15.53
2022-12-03T04:06:45.422Z,15.17
2022-12-03T04:09:08.064Z,14.27
2022-12-03T04:11:50.383Z,16.23
2022-12-03T04:14:12.669Z,15.73
2022-12-03T04:16:35.056Z,15.00
2022-12-03T04:18:57.789Z,16.20
2022-12-03T04:21:45.570Z,15.83
2022-12-03T04:24:12.327Z,14.97
2022-12-03T04:26:54.823Z,16.10
2022-12-03T04:29:17.781Z,16.10
2022-12-03T04:32:00.099Z,16.83
2022-12-03T04:34:42.028Z,16.07
2022-12-03T04:37:05.499Z,14.83
2022-12-03T04:39:43.467Z,16.77
2022-12-03T04:42:06.651Z,16.47
2022-12-03T04:44:38.505Z,16.63
2022-12-03T04:47:22.776Z,17.00
2022-12-03T04:49:50.700Z,17.70
2022-12-03T04:52:16.242Z,16.27
2022-12-03T04:54:42.330Z,15.87
2022-12-03T04:57:37.499Z,17.20
2022-12-03T05:00:00.030Z,17.77
2022-12-03T05:02:24.352Z,16.95
2022-12-03T05:04:47.016Z,16.23
2022-12-03T05:07:21.406Z,16.63
2022-12-03T15:05:16.671Z,16.53
2022-12-03T16:24:20.692Z,14.07
2022-12-03T16:30:34.981Z,16.05
